Marathon, WI (54448)

10:37 AM CST on December 07, 2016 (GMT -0600)
Camp Firewood | | Change Station

Elev 1306 ft 44.93 °N, 90.00 °W | Updated 1 minute ago

Light Snow
Light Snow
18.7 °F
Feels Like 9 °F
N
7.8
Wind Variable Wind from SW

Today
High -- | Low -- °F
--% Chance of Precip.
Yesterday
High -- | Low -- °F
Precip. -- in
Pressure 29.96 in
Visibility 4.0 miles
Clouds Overcast 2000 ft
Windchill 9 °F
Dew Point 14 °F
Humidity 83%
Rainfall 0.00 in
Snow Depth Not available.
7:24 AM 4:18 PM
First Quarter, 54% visible
METAR KAUW 071554Z AUTO 27014G21KT 4SM -SN OVC020 M08/M12 A2989 RMK AO2 SLP144 P0000 T10831117
Pressure 29.96 in
Visibility 4.0 miles
Clouds Overcast 2000 ft
Windchill 9 °F
Dew Point 14 °F
Humidity 83%
Rainfall 0.00 in
Snow Depth Not available.
7:24 AM 4:18 PM
First Quarter, 54% visible
METAR KAUW 071554Z AUTO 27014G21KT 4SM -SN OVC020 M08/M12 A2989 RMK AO2 SLP144 P0000 T10831117

10-Day Weather Forecast

Almanac

Astronomy

Dec. 07, 2016 Rise Set
Actual Time
Civil Twilight
Nautical Twilight
Astronomical Twilight
Moon
Length of Visible Light
Length of Day
Tomorrow will be .
, % of the Moon is Illuminated

Today's Extremes

State Highs State Lows

Community

WunderPhotos

Upload Photos

1,956,132 photos uploaded!

WunderBlog® & News

Nearby

Air Quality

  Air Quality AQ Index Pollutant
Not available.

Snow Depth

Station Depth Elevation

Earthquake Activity

City Distance Mag. Time & Date
Minimum magnitude displayed is 2.5.

Coastal Water Temperatures

Place Temperature

Stations

Nearby Weather Stations

Station Location Temp. Windchill Dew Point Humidity Wind Precip. Elev Updated Type
                   

Watches & Warnings

There are currently no watches in effect.